Terminal Aerodrome Forecast
Issued by NWS Cleveland, OH

Home | Current Version | Previous Version | Graphics & Text | Print | Product List | Glossary On
Versions: 1 2 3 4 5 6 7 8 9 10 11 12 13 14 15 16 17 18 19 20 21 22
518
FTUS41 KCLE 162009 AAA
TAFCAK
TAF AMD
KCAK 162009Z 1620/1718 14005KT 5SM -RA BR OVC012
      TEMPO 1620/1622 2SM -RA BKN008
     FM162300 14005KT 5SM BR VCSH SCT008 OVC012
     FM170300 15008KT 2SM -RA BR OVC008
     FM170600 15008KT 1 1/2SM -RA OVC004=

USA.gov is the U.S. government's official web portal to all federal, state and local government web resources and services.